Franklin, West Virginia
Current Conditions -  °F | °C
As of 6:15 PM on Saturday 25 Oct 2014 (Local Time) from KW99 Reporting Station
Clear Clear  
Wind Chill: 20°   Ceiling: Unl
Heat Index: 20°   Visibility: 10mi
Dew Point:   Wind: 8mph
Humidity: 37%   Direction: 240°WSW
Pressure: 29.81"   Gusts: NA
Location:  38.64°N, 79.33°W
Report Text: KW99 252215Z AUTO 24007KT 230V290 10SM CLR 20/05 A2981 RMK AO2 T02000049
Loading
Personal Weather Stations






























Interactive Weather Map
Tropical Storm Tracking
New forecast layout! Learn more

10-Day Weather Forecast

Advertisements
Track Severe Weather on mobile